Flight Track Log - Related Links

Times and Time Zones

All times are in EDT time to prevent confusion due to time zone crossing. See the N70AG flight status page for this flight to view local times or setup timezone preferences in your user account.

Time Position Orientation Groundspeed Altitude Reporting Facility
EDT Latitude Longitude Course Direction KTS MPH feet Rate Location/Type
Tue 10:22:19 PM 32.7667 -117.2667 297° West 247 284 4,800  Level Southern California TRACON
Tue 10:23:08 PM 32.7975 -117.3181 306° West 255 293 8,600 2,865 Climbing Los Angeles Center
Tue 10:24:10 PM 32.8442 -117.3953 306° West 279 321 10,100 732 Climbing Los Angeles Center
Tue 10:25:11 PM 32.8978 -117.4864 305° West 325 374 10,100  Level Los Angeles Center
Tue 10:26:13 PM 32.9792 -117.5481 328° Northwest 342 394 10,100  Level Los Angeles Center
Tue 10:27:14 PM 33.0642 -117.6539 314° West 366 421 10,100  Level Los Angeles Center
Tue 10:28:16 PM 33.1258 -117.7511 307° West 367 422 10,100  Level Los Angeles Center
Tue 10:29:18 PM 33.2022 -117.8328 318° Northwest 372 428 10,100 -488 Level Los Angeles Center
Tue 10:30:19 PM 33.2856 -117.8853 332° Northwest 349 402 9,100 -1,317 Descending Los Angeles Center
Tue 10:31:21 PM 33.3553 -117.9292 332° Northwest 296 341 7,400 -1,500 Descending Los Angeles Center
Tue 10:32:23 PM 33.4211 -117.9744 330° Northwest 279 321 6,000 -683 Descending Los Angeles Center
Tue 10:33:24 PM 33.4861 -118.0189 330° Northwest 274 315 6,000  Level Los Angeles Center
Tue 10:34:26 PM 33.5636 -118.0719 330° Northwest 270 311 6,000  Level Los Angeles Center
Tue 10:35:28 PM 33.6289 -118.1169 330° Northwest 271 312 6,000  Level Los Angeles Center
Tue 10:36:29 PM 33.6986 -118.1508 338° Northwest 274 315 6,000  Level Los Angeles Center
Tue 10:37:31 PM 33.7692 -118.1817 340° North 280 322 6,000  Level Los Angeles Center
Tue 10:38:33 PM 33.8153 -118.2508 309° West 274 315 6,000  Level Los Angeles Center
Tue 10:39:34 PM 33.8611 -118.3206 308° West 272 313 6,000  Level Los Angeles Center
Tue 10:40:36 PM 33.9153 -118.4056 308° West 272 313 6,000 -390 Level Los Angeles Center
Tue 10:41:37 PM 33.9794 -118.4642 323° Northwest 274 315 5,200 -488 Descending Los Angeles Center
Tue 10:42:39 PM 34.0406 -118.5172 324° Northwest 270 311 5,000 -242 Descending Los Angeles Center
Tue 10:43:41 PM 34.0992 -118.5467 337° Northwest 245 282 4,700 -561 Descending Los Angeles Center
Tue 10:44:26 PM 34.1500 -118.5500 357° North 218 251 4,000 -857 Descending Southern California TRACON
Tue 10:45:26 PM 34.2167 -118.5500 360° North 201 231 3,200 -850 Descending Southern California TRACON
Tue 10:46:26 PM 34.2667 -118.5500 360° North 184 212 2,300 -800 Descending Southern California TRACON
Tue 10:47:26 PM 34.2500 -118.5000 112° Southeast 141 162 1,600 -700 Descending Southern California TRACON

Login

Don't have an account? Register now (free) for customized features, flight alerts, and more!